sensor_id;sensor_type;location;lat;lon;timestamp;pressure;altitude;pressure_sealevel;temperature;humidity
48041;BME280;33815;48.386;11.738;2023-12-20T00:00:40;96548.09;;;2.73;93.00
48041;BME280;33815;48.386;11.738;2023-12-20T00:03:05;96530.91;;;2.86;90.28
48041;BME280;33815;48.386;11.738;2023-12-20T00:05:30;96489.31;;;2.67;89.38
48041;BME280;33815;48.386;11.738;2023-12-20T00:08:00;96529.13;;;3.00;89.58
48041;BME280;33815;48.386;11.738;2023-12-20T00:10:25;96524.38;;;3.06;88.96
48041;BME280;33815;48.386;11.738;2023-12-20T00:12:50;96507.94;;;2.96;90.08
48041;BME280;33815;48.386;11.738;2023-12-20T00:15:16;96516.38;;;2.85;90.95
48041;BME280;33815;48.386;11.738;2023-12-20T00:17:41;96516.38;;;2.85;90.39
48041;BME280;33815;48.386;11.738;2023-12-20T00:20:07;96526.41;;;3.14;88.62
48041;BME280;33815;48.386;11.738;2023-12-20T00:22:32;96517.78;;;3.02;89.67
48041;BME280;33815;48.386;11.738;2023-12-20T00:24:57;96518.13;;;2.98;89.46
48041;BME280;33815;48.386;11.738;2023-12-20T00:27:23;96512.56;;;2.91;90.81
48041;BME280;33815;48.386;11.738;2023-12-20T00:29:48;96498.78;;;2.92;90.59
48041;BME280;33815;48.386;11.738;2023-12-20T00:32:15;96498.78;;;2.92;90.99
48041;BME280;33815;48.386;11.738;2023-12-20T00:34:40;96498.03;;;2.90;91.11
48041;BME280;33815;48.386;11.738;2023-12-20T00:37:06;96498.03;;;2.90;91.32
48041;BME280;33815;48.386;11.738;2023-12-20T00:39:31;96484.75;;;2.96;89.68
48041;BME280;33815;48.386;11.738;2023-12-20T00:41:58;96475.59;;;2.92;89.88
48041;BME280;33815;48.386;11.738;2023-12-20T00:44:23;96477.97;;;2.95;91.21
48041;BME280;33815;48.386;11.738;2023-12-20T00:46:48;96470.25;;;2.82;91.08
48041;BME280;33815;48.386;11.738;2023-12-20T00:49:14;96476.94;;;2.85;90.99
48041;BME280;33815;48.386;11.738;2023-12-20T00:51:39;96470.16;;;2.84;91.47
48041;BME280;33815;48.386;11.738;2023-12-20T00:54:04;96433.63;;;2.66;92.15
48041;BME280;33815;48.386;11.738;2023-12-20T00:56:29;96473.53;;;2.84;92.20
48041;BME280;33815;48.386;11.738;2023-12-20T00:58:55;96466.53;;;2.86;91.21
48041;BME280;33815;48.386;11.738;2023-12-20T01:01:21;96469.59;;;2.91;91.70
48041;BME280;33815;48.386;11.738;2023-12-20T01:03:46;96462.84;;;2.90;92.08
48041;BME280;33815;48.386;11.738;2023-12-20T01:06:12;96473.50;;;2.97;91.47
48041;BME280;33815;48.386;11.738;2023-12-20T01:08:37;96429.69;;;2.73;92.48
48041;BME280;33815;48.386;11.738;2023-12-20T01:11:05;96427.63;;;2.78;91.71
48041;BME280;33815;48.386;11.738;2023-12-20T01:13:31;96454.53;;;3.11;91.15
48041;BME280;33815;48.386;11.738;2023-12-20T01:15:56;96454.22;;;3.16;90.43
48041;BME280;33815;48.386;11.738;2023-12-20T01:18:21;96459.94;;;3.32;89.84
48041;BME280;33815;48.386;11.738;2023-12-20T01:20:47;96465.47;;;3.39;89.44
48041;BME280;33815;48.386;11.738;2023-12-20T01:23:12;96451.63;;;3.53;87.77
48041;BME280;33815;48.386;11.738;2023-12-20T01:25:37;96424.47;;;3.60;87.22
48041;BME280;33815;48.386;11.738;2023-12-20T01:28:03;96434.25;;;3.68;87.20
48041;BME280;33815;48.386;11.738;2023-12-20T01:30:28;96455.38;;;3.84;85.92
48041;BME280;33815;48.386;11.738;2023-12-20T01:32:53;96447.22;;;3.90;84.61
48041;BME280;33815;48.386;11.738;2023-12-20T01:35:19;96453.78;;;3.94;84.96
48041;BME280;33815;48.386;11.738;2023-12-20T01:37:44;96444.41;;;3.93;85.74
48041;BME280;33815;48.386;11.738;2023-12-20T01:40:10;96442.44;;;3.97;84.63
48041;BME280;33815;48.386;11.738;2023-12-20T01:42:35;96437.84;;;4.01;84.56
48041;BME280;33815;48.386;11.738;2023-12-20T01:45:01;96440.44;;;4.01;85.69
48041;BME280;33815;48.386;11.738;2023-12-20T01:47:26;96425.75;;;3.90;86.25
48041;BME280;33815;48.386;11.738;2023-12-20T01:49:52;96383.41;;;3.81;85.14
48041;BME280;33815;48.386;11.738;2023-12-20T01:52:19;96419.34;;;3.96;85.71
48041;BME280;33815;48.386;11.738;2023-12-20T01:54:45;96404.34;;;4.01;85.23
48041;BME280;33815;48.386;11.738;2023-12-20T01:57:10;96406.63;;;4.17;84.95
48041;BME280;33815;48.386;11.738;2023-12-20T01:59:37;96398.97;;;4.15;85.27
48041;BME280;33815;48.386;11.738;2023-12-20T02:02:04;96394.28;;;4.09;85.81
48041;BME280;33815;48.386;11.738;2023-12-20T02:04:30;96350.28;;;3.88;85.49
48041;BME280;33815;48.386;11.738;2023-12-20T02:06:56;96387.50;;;4.31;85.17
48041;BME280;33815;48.386;11.738;2023-12-20T02:09:22;96380.81;;;4.17;85.87
48041;BME280;33815;48.386;11.738;2023-12-20T02:11:47;96371.53;;;4.03;87.16
48041;BME280;33815;48.386;11.738;2023-12-20T02:14:13;96373.88;;;4.17;85.60
48041;BME280;33815;48.386;11.738;2023-12-20T02:16:38;96365.22;;;4.07;86.67
48041;BME280;33815;48.386;11.738;2023-12-20T02:19:08;96362.41;;;4.10;86.80
48041;BME280;33815;48.386;11.738;2023-12-20T02:21:35;96364.13;;;4.09;87.48
48041;BME280;33815;48.386;11.738;2023-12-20T02:24:01;96353.94;;;4.19;86.84
48041;BME280;33815;48.386;11.738;2023-12-20T02:26:26;96325.09;;;3.91;87.29
48041;BME280;33815;48.386;11.738;2023-12-20T02:28:52;96332.47;;;3.85;87.47
48041;BME280;33815;48.386;11.738;2023-12-20T02:31:21;96363.44;;;3.96;87.95
48041;BME280;33815;48.386;11.738;2023-12-20T02:33:46;96355.47;;;3.99;87.82
48041;BME280;33815;48.386;11.738;2023-12-20T02:36:11;96359.31;;;3.93;88.31
48041;BME280;33815;48.386;11.738;2023-12-20T02:38:37;96357.09;;;3.89;88.94
48041;BME280;33815;48.386;11.738;2023-12-20T02:41:02;96346.31;;;3.95;89.13
48041;BME280;33815;48.386;11.738;2023-12-20T02:43:28;96333.03;;;3.77;89.42
48041;BME280;33815;48.386;11.738;2023-12-20T02:45:53;96350.03;;;3.91;87.49
48041;BME280;33815;48.386;11.738;2023-12-20T02:48:18;96360.94;;;3.83;88.88
48041;BME280;33815;48.386;11.738;2023-12-20T02:50:45;96361.06;;;3.82;88.67
48041;BME280;33815;48.386;11.738;2023-12-20T02:53:11;96362.56;;;3.84;87.47
48041;BME280;33815;48.386;11.738;2023-12-20T02:55:37;96358.63;;;3.91;88.19
48041;BME280;33815;48.386;11.738;2023-12-20T02:58:02;96351.22;;;3.98;86.92
48041;BME280;33815;48.386;11.738;2023-12-20T03:00:27;96353.34;;;3.93;86.94
48041;BME280;33815;48.386;11.738;2023-12-20T03:02:52;96344.06;;;3.90;87.15
48041;BME280;33815;48.386;11.738;2023-12-20T03:05:18;96309.09;;;3.64;88.10
48041;BME280;33815;48.386;11.738;2023-12-20T03:07:43;96292.56;;;3.55;88.50
48041;BME280;33815;48.386;11.738;2023-12-20T03:10:09;96347.22;;;3.83;88.45
48041;BME280;33815;48.386;11.738;2023-12-20T03:12:34;96346.16;;;3.85;88.76
48041;BME280;33815;48.386;11.738;2023-12-20T03:15:00;96356.13;;;3.90;89.23
48041;BME280;33815;48.386;11.738;2023-12-20T03:17:25;96344.06;;;3.79;89.43
48041;BME280;33815;48.386;11.738;2023-12-20T03:19:50;96357.91;;;3.89;90.23
48041;BME280;33815;48.386;11.738;2023-12-20T03:22:15;96367.66;;;4.08;88.90
48041;BME280;33815;48.386;11.738;2023-12-20T03:24:41;96377.63;;;4.02;89.31
48041;BME280;33815;48.386;11.738;2023-12-20T03:27:06;96381.72;;;4.04;89.93
48041;BME280;33815;48.386;11.738;2023-12-20T03:29:31;96380.44;;;4.10;89.45
48041;BME280;33815;48.386;11.738;2023-12-20T03:31:56;96369.41;;;4.08;90.13
48041;BME280;33815;48.386;11.738;2023-12-20T03:34:22;96371.66;;;4.01;90.60
48041;BME280;33815;48.386;11.738;2023-12-20T03:36:47;96375.72;;;4.04;91.95
48041;BME280;33815;48.386;11.738;2023-12-20T03:39:13;96339.03;;;3.77;92.49
48041;BME280;33815;48.386;11.738;2023-12-20T03:41:38;96377.72;;;4.00;92.79
48041;BME280;33815;48.386;11.738;2023-12-20T03:44:03;96383.56;;;3.91;93.45
48041;BME280;33815;48.386;11.738;2023-12-20T03:46:29;96382.78;;;4.02;92.85
48041;BME280;33815;48.386;11.738;2023-12-20T03:48:54;96392.41;;;4.11;92.51
48041;BME280;33815;48.386;11.738;2023-12-20T03:51:19;96396.63;;;4.12;92.10
48041;BME280;33815;48.386;11.738;2023-12-20T03:53:44;96404.13;;;4.15;92.45
48041;BME280;33815;48.386;11.738;2023-12-20T03:56:10;96407.88;;;4.11;93.63
48041;BME280;33815;48.386;11.738;2023-12-20T03:58:35;96398.25;;;4.02;96.48
48041;BME280;33815;48.386;11.738;2023-12-20T04:01:00;96400.88;;;3.77;99.05
48041;BME280;33815;48.386;11.738;2023-12-20T04:03:26;96410.59;;;3.74;100.00
48041;BME280;33815;48.386;11.738;2023-12-20T04:05:51;96405.13;;;3.54;100.00
48041;BME280;33815;48.386;11.738;2023-12-20T04:08:16;96410.50;;;3.51;100.00
48041;BME280;33815;48.386;11.738;2023-12-20T04:10:42;96408.09;;;3.37;100.00
48041;BME280;33815;48.386;11.738;2023-12-20T04:13:07;96415.59;;;3.16;100.00
48041;BME280;33815;48.386;11.738;2023-12-20T04:15:32;96375.72;;;2.84;100.00
48041;BME280;33815;48.386;11.738;2023-12-20T04:17:57;96406.56;;;2.97;100.00
48041;BME280;33815;48.386;11.738;2023-12-20T04:20:23;96381.59;;;2.73;100.00
48041;BME280;33815;48.386;11.738;2023-12-20T04:22:48;96392.72;;;2.87;100.00
48041;BME280;33815;48.386;11.738;2023-12-20T04:25:13;96399.31;;;2.78;100.00
48041;BME280;33815;48.386;11.738;2023-12-20T04:27:39;96387.16;;;2.80;100.00
48041;BME280;33815;48.386;11.738;2023-12-20T04:30:04;96390.06;;;2.76;100.00
48041;BME280;33815;48.386;11.738;2023-12-20T04:32:30;96405.41;;;2.77;100.00
48041;BME280;33815;48.386;11.738;2023-12-20T04:34:56;96387.50;;;2.76;100.00
48041;BME280;33815;48.386;11.738;2023-12-20T04:37:21;96404.16;;;2.83;100.00
48041;BME280;33815;48.386;11.738;2023-12-20T04:39:47;96406.22;;;2.78;100.00
48041;BME280;33815;48.386;11.738;2023-12-20T04:42:12;96416.19;;;2.82;100.00
48041;BME280;33815;48.386;11.738;2023-12-20T04:44:37;96419.81;;;2.80;100.00
48041;BME280;33815;48.386;11.738;2023-12-20T04:47:03;96422.38;;;2.80;100.00
48041;BME280;33815;48.386;11.738;2023-12-20T04:49:28;96420.63;;;2.80;100.00
48041;BME280;33815;48.386;11.738;2023-12-20T04:51:54;96408.59;;;2.68;100.00
48041;BME280;33815;48.386;11.738;2023-12-20T04:54:19;96424.84;;;2.81;100.00
48041;BME280;33815;48.386;11.738;2023-12-20T04:56:44;96421.94;;;2.86;100.00
48041;BME280;33815;48.386;11.738;2023-12-20T04:59:09;96409.31;;;2.70;100.00
48041;BME280;33815;48.386;11.738;2023-12-20T05:01:35;96378.75;;;2.52;100.00
48041;BME280;33815;48.386;11.738;2023-12-20T05:04:00;96415.16;;;2.72;100.00
48041;BME280;33815;48.386;11.738;2023-12-20T05:06:25;96419.63;;;2.70;100.00
48041;BME280;33815;48.386;11.738;2023-12-20T05:08:51;96426.41;;;2.71;100.00
48041;BME280;33815;48.386;11.738;2023-12-20T05:11:16;96436.50;;;2.74;100.00
48041;BME280;33815;48.386;11.738;2023-12-20T05:13:42;96429.91;;;2.70;100.00
48041;BME280;33815;48.386;11.738;2023-12-20T05:16:07;96437.41;;;2.73;100.00
48041;BME280;33815;48.386;11.738;2023-12-20T05:18:34;96439.19;;;2.72;100.00
48041;BME280;33815;48.386;11.738;2023-12-20T05:20:59;96437.94;;;2.78;100.00
48041;BME280;33815;48.386;11.738;2023-12-20T05:23:24;96438.03;;;2.77;100.00
48041;BME280;33815;48.386;11.738;2023-12-20T05:25:50;96449.16;;;2.77;100.00
48041;BME280;33815;48.386;11.738;2023-12-20T05:28:15;96452.25;;;2.69;100.00
48041;BME280;33815;48.386;11.738;2023-12-20T05:30:40;96453.47;;;2.77;100.00
48041;BME280;33815;48.386;11.738;2023-12-20T05:33:05;96442.25;;;2.78;100.00
48041;BME280;33815;48.386;11.738;2023-12-20T05:35:31;96452.47;;;2.79;100.00
48041;BME280;33815;48.386;11.738;2023-12-20T05:37:56;96454.91;;;2.81;100.00
48041;BME280;33815;48.386;11.738;2023-12-20T05:40:21;96427.94;;;2.61;100.00
48041;BME280;33815;48.386;11.738;2023-12-20T05:42:46;96444.31;;;2.72;100.00
48041;BME280;33815;48.386;11.738;2023-12-20T05:45:14;96455.63;;;2.83;100.00
48041;BME280;33815;48.386;11.738;2023-12-20T05:47:40;96463.13;;;2.86;100.00
48041;BME280;33815;48.386;11.738;2023-12-20T05:50:06;96470.97;;;2.84;100.00
48041;BME280;33815;48.386;11.738;2023-12-20T05:52:31;96474.97;;;2.88;100.00
48041;BME280;33815;48.386;11.738;2023-12-20T05:54:56;96440.00;;;2.73;100.00
48041;BME280;33815;48.386;11.738;2023-12-20T05:57:26;96479.19;;;2.89;100.00
48041;BME280;33815;48.386;11.738;2023-12-20T05:59:52;96436.41;;;2.63;100.00
48041;BME280;33815;48.386;11.738;2023-12-20T06:02:17;96486.94;;;2.89;100.00
48041;BME280;33815;48.386;11.738;2023-12-20T06:04:42;96486.19;;;2.87;100.00
48041;BME280;33815;48.386;11.738;2023-12-20T06:07:11;96484.69;;;2.85;100.00
48041;BME280;33815;48.386;11.738;2023-12-20T06:09:37;96499.47;;;2.94;100.00
48041;BME280;33815;48.386;11.738;2023-12-20T06:12:02;96498.94;;;2.89;100.00
48041;BME280;33815;48.386;11.738;2023-12-20T06:14:27;96506.78;;;2.87;100.00
48041;BME280;33815;48.386;11.738;2023-12-20T06:16:52;96498.13;;;2.88;100.00
48041;BME280;33815;48.386;11.738;2023-12-20T06:19:18;96507.09;;;2.96;100.00
48041;BME280;33815;48.386;11.738;2023-12-20T06:21:43;96470.88;;;2.73;100.00
48041;BME280;33815;48.386;11.738;2023-12-20T06:24:08;96504.03;;;2.90;100.00
48041;BME280;33815;48.386;11.738;2023-12-20T06:26:34;96477.56;;;2.63;100.00
48041;BME280;33815;48.386;11.738;2023-12-20T06:29:00;96513.25;;;2.93;100.00
48041;BME280;33815;48.386;11.738;2023-12-20T06:31:25;96513.81;;;2.85;100.00
48041;BME280;33815;48.386;11.738;2023-12-20T06:33:50;96524.19;;;2.84;100.00
48041;BME280;33815;48.386;11.738;2023-12-20T06:36:23;96518.22;;;2.83;100.00
48041;BME280;33815;48.386;11.738;2023-12-20T06:38:48;96516.59;;;2.82;100.00
48041;BME280;33815;48.386;11.738;2023-12-20T06:41:13;96518.44;;;2.80;100.00
48041;BME280;33815;48.386;11.738;2023-12-20T06:43:39;96526.03;;;2.82;100.00
48041;BME280;33815;48.386;11.738;2023-12-20T06:46:06;96492.72;;;2.54;100.00
48041;BME280;33815;48.386;11.738;2023-12-20T06:48:31;96528.44;;;2.85;100.00
48041;BME280;33815;48.386;11.738;2023-12-20T06:50:59;96493.63;;;2.53;100.00
48041;BME280;33815;48.386;11.738;2023-12-20T06:53:24;96536.56;;;2.79;100.00
48041;BME280;33815;48.386;11.738;2023-12-20T06:55:50;96533.06;;;2.80;100.00
48041;BME280;33815;48.386;11.738;2023-12-20T06:58:15;96540.16;;;2.76;100.00
48041;BME280;33815;48.386;11.738;2023-12-20T07:00:41;96544.38;;;2.77;100.00
48041;BME280;33815;48.386;11.738;2023-12-20T07:03:07;96549.41;;;2.79;100.00
48041;BME280;33815;48.386;11.738;2023-12-20T07:05:32;96563.84;;;2.81;100.00
48041;BME280;33815;48.386;11.738;2023-12-20T07:07:58;96517.00;;;2.50;100.00
48041;BME280;33815;48.386;11.738;2023-12-20T07:10:23;96545.59;;;2.59;100.00
48041;BME280;33815;48.386;11.738;2023-12-20T07:12:49;96575.38;;;2.76;100.00
48041;BME280;33815;48.386;11.738;2023-12-20T07:15:14;96570.53;;;2.71;100.00
48041;BME280;33815;48.386;11.738;2023-12-20T07:17:39;96576.69;;;2.68;100.00
48041;BME280;33815;48.386;11.738;2023-12-20T07:20:05;96581.00;;;2.68;100.00
48041;BME280;33815;48.386;11.738;2023-12-20T07:22:34;96581.13;;;2.66;100.00
48041;BME280;33815;48.386;11.738;2023-12-20T07:25:00;96584.31;;;2.57;100.00
48041;BME280;33815;48.386;11.738;2023-12-20T07:27:26;96592.31;;;2.52;100.00
48041;BME280;33815;48.386;11.738;2023-12-20T07:29:51;96586.78;;;2.59;100.00
48041;BME280;33815;48.386;11.738;2023-12-20T07:32:16;96553.91;;;2.36;100.00
48041;BME280;33815;48.386;11.738;2023-12-20T07:34:42;96590.84;;;2.48;100.00
48041;BME280;33815;48.386;11.738;2023-12-20T07:37:07;96589.03;;;2.50;100.00
48041;BME280;33815;48.386;11.738;2023-12-20T07:39:35;96591.59;;;2.50;100.00
48041;BME280;33815;48.386;11.738;2023-12-20T07:42:00;96586.56;;;2.49;100.00
48041;BME280;33815;48.386;11.738;2023-12-20T07:44:26;96592.72;;;2.46;100.00
48041;BME280;33815;48.386;11.738;2023-12-20T07:46:51;96597.66;;;2.49;100.00
48041;BME280;33815;48.386;11.738;2023-12-20T07:49:16;96589.72;;;2.52;100.00
48041;BME280;33815;48.386;11.738;2023-12-20T07:51:42;96592.13;;;2.55;100.00
48041;BME280;33815;48.386;11.738;2023-12-20T07:54:07;96588.09;;;2.51;100.00
48041;BME280;33815;48.386;11.738;2023-12-20T07:56:33;96590.69;;;2.51;100.00
48041;BME280;33815;48.386;11.738;2023-12-20T07:58:58;96561.63;;;2.36;100.00
48041;BME280;33815;48.386;11.738;2023-12-20T08:01:24;96606.56;;;2.71;100.00
48041;BME280;33815;48.386;11.738;2023-12-20T08:03:49;96604.09;;;2.69;100.00
48041;BME280;33815;48.386;11.738;2023-12-20T08:06:15;96612.53;;;2.71;100.00
48041;BME280;33815;48.386;11.738;2023-12-20T08:08:42;96605.63;;;2.72;100.00
48041;BME280;33815;48.386;11.738;2023-12-20T08:11:07;96583.78;;;2.52;100.00
48041;BME280;33815;48.386;11.738;2023-12-20T08:13:32;96625.28;;;2.73;100.00
48041;BME280;33815;48.386;11.738;2023-12-20T08:15:58;96619.44;;;2.71;100.00
48041;BME280;33815;48.386;11.738;2023-12-20T08:18:23;96617.13;;;2.66;100.00
48041;BME280;33815;48.386;11.738;2023-12-20T08:20:48;96635.16;;;2.66;100.00
48041;BME280;33815;48.386;11.738;2023-12-20T08:23:15;96630.44;;;2.73;100.00
48041;BME280;33815;48.386;11.738;2023-12-20T08:25:40;96625.69;;;2.67;100.00
48041;BME280;33815;48.386;11.738;2023-12-20T08:28:05;96632.09;;;2.74;100.00
48041;BME280;33815;48.386;11.738;2023-12-20T08:30:31;96635.69;;;2.71;100.00
48041;BME280;33815;48.386;11.738;2023-12-20T08:33:00;96627.25;;;2.69;100.00
48041;BME280;33815;48.386;11.738;2023-12-20T08:35:25;96624.59;;;2.71;100.00
48041;BME280;33815;48.386;11.738;2023-12-20T08:37:50;96635.78;;;2.70;100.00
48041;BME280;33815;48.386;11.738;2023-12-20T08:40:16;96620.47;;;2.81;100.00
48041;BME280;33815;48.386;11.738;2023-12-20T08:42:41;96628.09;;;2.83;100.00
48041;BME280;33815;48.386;11.738;2023-12-20T08:45:06;96625.50;;;2.83;100.00
48041;BME280;33815;48.386;11.738;2023-12-20T08:47:32;96591.50;;;2.65;100.00
48041;BME280;33815;48.386;11.738;2023-12-20T08:49:57;96589.69;;;2.67;100.00
48041;BME280;33815;48.386;11.738;2023-12-20T08:52:25;96630.66;;;2.96;100.00
48041;BME280;33815;48.386;11.738;2023-12-20T08:54:52;96623.69;;;2.98;100.00
48041;BME280;33815;48.386;11.738;2023-12-20T08:57:19;96627.59;;;3.03;100.00
48041;BME280;33815;48.386;11.738;2023-12-20T08:59:46;96627.72;;;3.02;100.00
48041;BME280;33815;48.386;11.738;2023-12-20T09:02:11;96618.53;;;3.11;100.00
48041;BME280;33815;48.386;11.738;2023-12-20T09:04:36;96630.78;;;3.07;100.00
48041;BME280;33815;48.386;11.738;2023-12-20T09:07:02;96617.91;;;3.07;100.00
48041;BME280;33815;48.386;11.738;2023-12-20T09:09:27;96619.06;;;3.16;100.00
48041;BME280;33815;48.386;11.738;2023-12-20T09:11:52;96632.53;;;3.19;100.00
48041;BME280;33815;48.386;11.738;2023-12-20T09:14:18;96623.25;;;3.17;100.00
48041;BME280;33815;48.386;11.738;2023-12-20T09:16:44;96618.63;;;3.22;100.00
48041;BME280;33815;48.386;11.738;2023-12-20T09:19:10;96636.13;;;3.17;100.00
48041;BME280;33815;48.386;11.738;2023-12-20T09:21:35;96632.22;;;3.11;100.00
48041;BME280;33815;48.386;11.738;2023-12-20T09:24:01;96626.69;;;3.17;100.00
48041;BME280;33815;48.386;11.738;2023-12-20T09:26:26;96626.69;;;3.17;100.00
48041;BME280;33815;48.386;11.738;2023-12-20T09:28:51;96631.09;;;3.15;100.00
48041;BME280;33815;48.386;11.738;2023-12-20T09:31:16;96631.28;;;3.25;100.00
48041;BME280;33815;48.386;11.738;2023-12-20T09:33:42;96628.72;;;3.25;100.00
48041;BME280;33815;48.386;11.738;2023-12-20T09:36:07;96630.59;;;3.23;100.00
48041;BME280;33815;48.386;11.738;2023-12-20T09:38:32;96621.00;;;3.25;100.00
48041;BME280;33815;48.386;11.738;2023-12-20T09:40:58;96627.38;;;3.19;100.00
48041;BME280;33815;48.386;11.738;2023-12-20T09:43:24;96628.41;;;3.17;100.00
48041;BME280;33815;48.386;11.738;2023-12-20T09:45:53;96631.81;;;3.17;100.00
48041;BME280;33815;48.386;11.738;2023-12-20T09:48:19;96629.25;;;3.17;100.00
48041;BME280;33815;48.386;11.738;2023-12-20T09:50:45;96628.00;;;3.23;100.00
48041;BME280;33815;48.386;11.738;2023-12-20T09:53:15;96627.69;;;3.28;100.00
48041;BME280;33815;48.386;11.738;2023-12-20T09:55:41;96629.47;;;3.27;100.00
48041;BME280;33815;48.386;11.738;2023-12-20T09:58:07;96630.91;;;3.31;100.00
48041;BME280;33815;48.386;11.738;2023-12-20T10:00:34;96618.94;;;3.43;100.00
48041;BME280;33815;48.386;11.738;2023-12-20T10:03:00;96625.53;;;3.47;100.00
48041;BME280;33815;48.386;11.738;2023-12-20T10:05:27;96618.69;;;3.59;100.00
48041;BME280;33815;48.386;11.738;2023-12-20T10:07:53;96625.09;;;3.53;100.00
48041;BME280;33815;48.386;11.738;2023-12-20T10:10:18;96608.91;;;3.51;100.00
48041;BME280;33815;48.386;11.738;2023-12-20T10:13:10;96623.84;;;3.72;100.00
48041;BME280;33815;48.386;11.738;2023-12-20T10:15:37;96626.53;;;3.70;100.00
48041;BME280;33815;48.386;11.738;2023-12-20T10:18:03;96617.53;;;3.76;100.00
48041;BME280;33815;48.386;11.738;2023-12-20T10:20:30;96611.88;;;3.71;100.00
48041;BME280;33815;48.386;11.738;2023-12-20T10:22:57;96605.06;;;3.70;100.00
48041;BME280;33815;48.386;11.738;2023-12-20T10:25:23;96577.38;;;3.48;100.00
48041;BME280;33815;48.386;11.738;2023-12-20T10:27:50;96615.59;;;3.67;100.00
48041;BME280;33815;48.386;11.738;2023-12-20T10:30:33;96608.88;;;3.64;100.00
48041;BME280;33815;48.386;11.738;2023-12-20T10:32:58;96601.75;;;3.81;100.00
48041;BME280;33815;48.386;11.738;2023-12-20T10:35:23;96607.22;;;3.76;100.00
48041;BME280;33815;48.386;11.738;2023-12-20T10:37:49;96602.16;;;3.74;100.00
48041;BME280;33815;48.386;11.738;2023-12-20T10:40:15;96599.78;;;3.71;100.00
48041;BME280;33815;48.386;11.738;2023-12-20T10:42:42;96593.09;;;3.69;100.00
48041;BME280;33815;48.386;11.738;2023-12-20T10:45:08;96590.53;;;3.69;100.00
48041;BME280;33815;48.386;11.738;2023-12-20T10:47:35;96585.97;;;3.72;100.00
48041;BME280;33815;48.386;11.738;2023-12-20T10:50:01;96586.09;;;3.71;100.00
48041;BME280;33815;48.386;11.738;2023-12-20T10:52:31;96589.88;;;3.78;100.00
48041;BME280;33815;48.386;11.738;2023-12-20T10:54:57;96589.19;;;3.76;100.00
48041;BME280;33815;48.386;11.738;2023-12-20T10:57:25;96585.13;;;3.85;100.00
48041;BME280;33815;48.386;11.738;2023-12-20T10:59:52;96590.75;;;3.90;100.00
48041;BME280;33815;48.386;11.738;2023-12-20T11:02:18;96589.25;;;3.87;100.00
48041;BME280;33815;48.386;11.738;2023-12-20T11:04:50;96585.03;;;3.86;100.00
48041;BME280;33815;48.386;11.738;2023-12-20T11:07:25;96583.47;;;3.84;100.00
48041;BME280;33815;48.386;11.738;2023-12-20T11:10:11;96579.88;;;3.86;100.00
48041;BME280;33815;48.386;11.738;2023-12-20T11:12:53;96574.72;;;3.86;100.00
48041;BME280;33815;48.386;11.738;2023-12-20T11:15:20;96573.09;;;3.97;100.00
48041;BME280;33815;48.386;11.738;2023-12-20T11:17:46;96573.34;;;3.93;100.00
48041;BME280;33815;48.386;11.738;2023-12-20T11:20:11;96536.91;;;3.74;100.00
48041;BME280;33815;48.386;11.738;2023-12-20T11:22:37;96528.72;;;3.80;100.00
48041;BME280;33815;48.386;11.738;2023-12-20T11:25:09;96538.84;;;3.83;100.00
48041;BME280;33815;48.386;11.738;2023-12-20T11:27:35;96572.34;;;4.07;100.00
48041;BME280;33815;48.386;11.738;2023-12-20T11:30:03;96563.69;;;4.08;100.00
48041;BME280;33815;48.386;11.738;2023-12-20T11:32:36;96536.38;;;3.82;100.00
48041;BME280;33815;48.386;11.738;2023-12-20T11:37:36;96563.19;;;4.03;100.00
48041;BME280;33815;48.386;11.738;2023-12-20T11:40:06;96529.94;;;3.87;100.00
48041;BME280;33815;48.386;11.738;2023-12-20T11:42:39;96556.56;;;4.23;100.00
48041;BME280;33815;48.386;11.738;2023-12-20T11:45:08;96517.69;;;4.02;100.00
48041;BME280;33815;48.386;11.738;2023-12-20T11:47:33;96560.34;;;4.31;100.00
48041;BME280;33815;48.386;11.738;2023-12-20T11:50:00;96556.97;;;4.30;100.00
48041;BME280;33815;48.386;11.738;2023-12-20T11:52:28;96555.81;;;4.34;100.00
48041;BME280;33815;48.386;11.738;2023-12-20T11:54:54;96553.13;;;4.36;100.00
48041;BME280;33815;48.386;11.738;2023-12-20T11:57:19;96558.38;;;4.34;100.00
48041;BME280;33815;48.386;11.738;2023-12-20T11:59:44;96545.44;;;4.23;100.00
48041;BME280;33815;48.386;11.738;2023-12-20T12:02:12;96551.91;;;4.28;100.00
48041;BME280;33815;48.386;11.738;2023-12-20T12:04:37;96554.38;;;4.30;100.00
48041;BME280;33815;48.386;11.738;2023-12-20T12:07:03;96556.03;;;4.31;100.00
48041;BME280;33815;48.386;11.738;2023-12-20T12:09:28;96551.38;;;4.36;100.00
48041;BME280;33815;48.386;11.738;2023-12-20T12:11:54;96551.69;;;4.32;100.00
48041;BME280;33815;48.386;11.738;2023-12-20T12:14:20;96544.63;;;4.22;100.00
48041;BME280;33815;48.386;11.738;2023-12-20T12:16:46;96547.69;;;4.27;100.00
48041;BME280;33815;48.386;11.738;2023-12-20T12:19:24;96540.94;;;4.38;100.00
48041;BME280;33815;48.386;11.738;2023-12-20T12:21:50;96499.13;;;4.21;100.00
48041;BME280;33815;48.386;11.738;2023-12-20T12:24:20;96537.91;;;4.55;100.00
48041;BME280;33815;48.386;11.738;2023-12-20T12:26:51;96533.09;;;4.51;100.00
48041;BME280;33815;48.386;11.738;2023-12-20T12:29:16;96530.44;;;4.63;100.00
48041;BME280;33815;48.386;11.738;2023-12-20T12:31:42;96531.72;;;4.58;100.00
48041;BME280;33815;48.386;11.738;2023-12-20T12:34:07;96538.88;;;4.66;100.00
48041;BME280;33815;48.386;11.738;2023-12-20T12:36:34;96529.81;;;4.60;100.00
48041;BME280;33815;48.386;11.738;2023-12-20T12:39:02;96529.81;;;4.60;100.00
48041;BME280;33815;48.386;11.738;2023-12-20T12:41:29;96506.69;;;4.47;100.00
48041;BME280;33815;48.386;11.738;2023-12-20T12:43:54;96515.28;;;4.48;100.00
48041;BME280;33815;48.386;11.738;2023-12-20T12:46:19;96512.44;;;4.39;100.00
48041;BME280;33815;48.386;11.738;2023-12-20T12:48:45;96513.56;;;4.24;100.00